Terminal Aerodrome Forecast
Issued by NWS Cleveland, OH

Home | Current Version | Previous Version | Text Only | Print | Product List | Glossary On
Versions: 1 2 3 4 5 6 7 8 9 10 11 12 13 14 15 16 17 18 19 20 21 22 23
418
FTUS41 KCLE 102229 AAA
TAFERI
TAF AMD
KERI 102229Z 1022/1118 28012G22KT 2SM -SHSN OVC025
      TEMPO 1022/1023 1/4SM +SN OVC015
     FM110100 28012G20KT 6SM -SHSN OVC025
     FM110900 29012G20KT 3SM -SHSN OVC025
      TEMPO 1112/1115 2SM -SHSN=

USA.gov is the U.S. government's official web portal to all federal, state and local government web resources and services.